createdAt,value
2018-05-27T04:34:22.504Z,16.40
2018-05-27T04:36:52.801Z,17.13
2018-05-27T04:39:22.616Z,20.23
2018-05-27T04:41:52.868Z,16.40
2018-05-27T04:44:23.056Z,16.90
2018-05-27T04:46:52.460Z,17.17
2018-05-27T04:49:22.628Z,16.13
2018-05-27T04:51:52.084Z,17.63
2018-05-27T04:54:22.225Z,16.00
2018-05-27T04:56:51.993Z,16.73
2018-05-27T04:59:22.156Z,16.83
2018-05-27T05:01:52.779Z,15.90
2018-05-27T05:04:23.015Z,19.03
2018-05-27T05:06:52.152Z,16.07
2018-05-27T05:09:21.131Z,16.23
2018-05-27T05:11:49.795Z,19.40
2018-05-27T05:14:23.400Z,17.17
2018-05-27T05:16:52.333Z,17.13
2018-05-27T05:19:24.932Z,14.90
2018-05-27T05:21:53.588Z,16.07
2018-05-27T05:24:28.624Z,13.93
2018-05-27T05:26:58.522Z,13.83
2018-05-27T05:29:30.228Z,13.83
2018-05-27T05:31:58.880Z,14.33
2018-05-27T05:34:31.808Z,12.73
2018-05-27T05:37:02.202Z,14.77
2018-05-27T05:39:35.406Z,15.07
2018-05-27T05:42:04.059Z,12.43
2018-05-27T05:44:37.079Z,13.20
2018-05-27T05:47:07.214Z,13.07
2018-05-27T05:49:38.449Z,12.90
2018-05-27T05:52:07.878Z,14.67
2018-05-27T05:54:49.351Z,13.37
2018-05-27T05:57:21.247Z,15.10
2018-05-27T05:59:50.685Z,14.00
2018-05-27T06:02:20.299Z,15.33
2018-05-27T06:04:49.361Z,18.13
2018-05-27T06:07:18.223Z,14.03
2018-05-27T06:09:49.152Z,15.40
2018-05-27T06:12:18.865Z,17.30
2018-05-27T06:14:51.888Z,13.80
2018-05-27T06:17:20.564Z,14.30
2018-05-27T06:19:53.537Z,14.20
2018-05-27T06:22:22.161Z,14.93
2018-05-27T06:24:56.400Z,14.60
2018-05-27T06:27:25.669Z,14.27
2018-05-27T06:29:58.886Z,14.70
2018-05-27T06:32:28.792Z,13.70
2018-05-27T06:35:01.854Z,12.75
2018-05-27T06:37:30.883Z,13.10
2018-05-27T06:40:12.876Z,13.13
2018-05-27T06:42:41.900Z,12.13
2018-05-27T06:45:11.315Z,11.50
2018-05-27T06:47:40.965Z,11.60
2018-05-27T06:50:13.251Z,11.88
2018-05-27T06:52:42.418Z,12.70
2018-05-27T06:55:12.324Z,12.68
2018-05-27T06:57:41.002Z,11.90
2018-05-27T07:00:14.160Z,11.60
2018-05-27T07:02:43.255Z,12.50
2018-05-27T07:05:25.497Z,11.32
2018-05-27T07:07:56.985Z,11.02
2018-05-27T07:10:25.668Z,10.32
2018-05-27T07:12:54.381Z,11.38
2018-05-27T07:15:23.352Z,10.60
2018-05-27T07:17:51.986Z,10.85
2018-05-27T07:20:25.247Z,10.18
2018-05-27T07:22:54.191Z,10.88
2018-05-27T07:25:26.694Z,9.93
2018-05-27T07:27:55.365Z,10.35
2018-05-27T07:30:28.509Z,10.63
2018-05-27T07:32:58.809Z,9.80
2018-05-27T07:35:31.585Z,9.68
2018-05-27T07:38:00.509Z,10.65
2018-05-27T07:40:33.264Z,9.25
2018-05-27T07:43:02.343Z,9.23
2018-05-27T07:45:35.064Z,9.43
2018-05-27T07:48:04.856Z,10.05
2018-05-27T07:50:37.488Z,10.13
2018-05-27T07:53:07.416Z,10.20
2018-05-27T07:55:39.209Z,9.30
2018-05-27T07:58:08.281Z,9.05
2018-05-27T08:00:43.542Z,9.57
2018-05-27T08:03:12.306Z,9.48
2018-05-27T08:05:44.707Z,8.05
2018-05-27T08:08:13.687Z,8.57
2018-05-27T08:10:46.933Z,8.93
2018-05-27T08:13:15.555Z,8.40
2018-05-27T08:15:48.861Z,8.27
2018-05-27T08:18:17.496Z,8.13
2018-05-27T08:20:59.764Z,8.52
2018-05-27T08:23:29.740Z,7.70
2018-05-27T08:25:58.391Z,8.30
2018-05-27T08:28:27.832Z,10.38
2018-05-27T08:30:57.287Z,8.55
2018-05-27T08:33:25.996Z,8.57
2018-05-27T08:36:01.648Z,9.25
2018-05-27T08:38:31.574Z,9.00
2018-05-27T08:41:01.335Z,9.73
2018-05-27T08:43:30.857Z,10.95
2018-05-27T08:46:12.987Z,8.90
2018-05-27T08:48:42.059Z,8.93
2018-05-27T08:51:12.058Z,9.05
2018-05-27T08:53:41.693Z,8.43
2018-05-27T08:56:11.433Z,7.82
2018-05-27T08:58:40.423Z,9.90
2018-05-27T09:01:13.184Z,8.52
2018-05-27T09:03:42.224Z,7.75
2018-05-27T09:06:16.489Z,8.27
2018-05-27T09:08:45.865Z,8.90
2018-05-27T09:11:17.637Z,9.05
2018-05-27T09:13:47.332Z,8.45
2018-05-27T09:16:28.340Z,8.52
2018-05-27T09:18:58.959Z,8.90
2018-05-27T09:21:28.024Z,8.52
2018-05-27T09:23:57.691Z,8.80
2018-05-27T09:26:28.141Z,8.25
2018-05-27T09:28:58.099Z,8.63
2018-05-27T09:31:28.351Z,7.25
2018-05-27T09:33:57.460Z,7.32
2018-05-27T09:36:29.186Z,7.68
2018-05-27T09:38:58.473Z,6.90
2018-05-27T09:41:31.280Z,7.62
2018-05-27T09:44:00.007Z,6.93
2018-05-27T09:46:33.367Z,7.37
2018-05-27T09:49:02.682Z,7.00
2018-05-27T09:51:35.567Z,6.40
2018-05-27T09:54:04.604Z,7.03
2018-05-27T09:56:38.071Z,7.25
2018-05-27T09:59:07.194Z,7.93
2018-05-27T10:01:40.729Z,7.87
2018-05-27T10:04:09.840Z,7.25
2018-05-27T10:06:43.055Z,6.78
2018-05-27T10:09:12.276Z,6.70
2018-05-27T10:11:45.689Z,6.85
2018-05-27T10:14:15.033Z,7.12
2018-05-27T10:16:57.211Z,7.05
2018-05-27T10:19:27.733Z,6.80
2018-05-27T10:21:58.543Z,5.47
2018-05-27T10:24:27.446Z,5.85
2018-05-27T10:26:56.410Z,5.32
2018-05-27T10:29:25.803Z,5.50
2018-05-27T10:31:56.290Z,6.95
2018-05-27T10:34:26.098Z,6.40
2018-05-27T10:36:59.160Z,5.40
2018-05-27T10:39:28.256Z,6.95
2018-05-27T10:42:01.384Z,6.10
2018-05-27T10:44:30.588Z,6.60
2018-05-27T10:47:11.977Z,7.40
2018-05-27T10:49:40.915Z,7.22
2018-05-27T10:52:10.763Z,7.25
2018-05-27T10:54:42.858Z,7.40
2018-05-27T10:57:14.315Z,6.82
2018-05-27T10:59:42.999Z,6.40
2018-05-27T11:02:26.331Z,6.85
2018-05-27T11:04:55.538Z,9.23
2018-05-27T11:07:24.580Z,7.97
2018-05-27T11:09:54.829Z,6.10
2018-05-27T11:12:23.787Z,4.73
2018-05-27T11:14:53.585Z,9.10
2018-05-27T11:17:23.651Z,4.90
2018-05-27T11:19:53.756Z,6.00
2018-05-27T11:22:25.397Z,5.73
2018-05-27T11:24:54.110Z,5.20
2018-05-27T11:27:35.292Z,4.90
2018-05-27T11:30:05.669Z,5.80
2018-05-27T11:32:35.750Z,5.43
2018-05-27T11:35:04.488Z,6.10
2018-05-27T11:37:33.260Z,3.13
2018-05-27T11:40:03.395Z,12.03
2018-05-27T11:42:36.053Z,12.60
2018-05-27T11:45:05.728Z,12.63
2018-05-27T11:47:36.844Z,10.60
2018-05-27T11:50:06.477Z,11.03
2018-05-27T11:52:47.852Z,9.33
2018-05-27T11:55:17.607Z,13.33
2018-05-27T11:57:47.816Z,11.80
2018-05-27T12:00:17.217Z,7.77
2018-05-27T12:02:47.877Z,10.60
2018-05-27T12:05:17.533Z,14.50
2018-05-27T12:07:46.175Z,9.60
2018-05-27T12:10:16.097Z,9.93
2018-05-27T12:12:58.132Z,11.60
2018-05-27T12:15:28.262Z,8.53
2018-05-27T12:17:57.860Z,14.80
2018-05-27T12:20:27.276Z,6.20
2018-05-27T12:22:58.529Z,7.10
2018-05-27T12:25:27.707Z,11.07
2018-05-27T12:27:57.177Z,7.20
2018-05-27T12:30:27.613Z,6.80
2018-05-27T12:32:59.656Z,8.17
2018-05-27T12:35:29.636Z,6.17
2018-05-27T12:38:01.991Z,5.77
2018-05-27T12:40:32.335Z,4.73
2018-05-27T12:43:03.516Z,6.07
2018-05-27T12:45:32.504Z,5.90
2018-05-27T12:48:06.025Z,6.93
2018-05-27T12:50:34.811Z,5.00
2018-05-27T12:53:10.613Z,6.07
2018-05-27T12:55:41.435Z,5.93
2018-05-27T12:58:14.451Z,5.70
2018-05-27T13:00:44.374Z,6.18
2018-05-27T13:03:14.849Z,11.25
2018-05-27T13:05:43.671Z,9.20
2018-05-27T13:08:18.053Z,6.57
2018-05-27T13:10:48.583Z,5.93
2018-05-27T13:13:21.208Z,8.27
2018-05-27T13:15:50.345Z,7.25
2018-05-27T13:18:22.392Z,8.77
2018-05-27T13:20:51.022Z,10.57
2018-05-27T13:23:33.243Z,8.77
2018-05-27T13:26:02.288Z,8.88
2018-05-27T13:28:30.942Z,5.55
2018-05-27T13:30:59.609Z,5.62
2018-05-27T13:33:29.005Z,7.57
2018-05-27T13:35:59.321Z,3.80
2018-05-27T13:38:31.188Z,9.00
2018-05-27T13:41:01.119Z,6.37
2018-05-27T13:43:32.924Z,7.03
2018-05-27T13:46:02.416Z,4.45
2018-05-27T13:48:36.056Z,5.78
2018-05-27T13:51:05.432Z,7.28
2018-05-27T13:53:38.235Z,5.65
2018-05-27T13:56:07.591Z,5.93
2018-05-27T13:58:40.639Z,5.78
2018-05-27T14:01:10.065Z,5.45
2018-05-27T14:03:43.236Z,5.43
2018-05-27T14:06:13.410Z,6.68
2018-05-27T14:08:45.095Z,5.60
2018-05-27T14:11:14.024Z,6.03
2018-05-27T14:13:47.207Z,7.50
2018-05-27T14:16:15.871Z,5.20
2018-05-27T14:18:48.642Z,7.65
2018-05-27T14:21:17.321Z,6.32
2018-05-27T14:23:51.610Z,6.12
2018-05-27T14:26:21.076Z,5.87
2018-05-27T14:28:53.780Z,6.15
2018-05-27T14:31:23.225Z,7.50
2018-05-27T14:33:57.554Z,4.40
2018-05-27T14:36:27.309Z,7.90
2018-05-27T14:39:01.226Z,6.68
2018-05-27T14:41:30.265Z,5.65
2018-05-27T14:44:04.110Z,6.53
2018-05-27T14:46:33.000Z,7.40
2018-05-27T14:49:15.500Z,6.62
2018-05-27T14:51:44.470Z,4.80
2018-05-27T14:54:15.193Z,5.22
2018-05-27T14:56:44.816Z,10.30
2018-05-27T14:59:14.731Z,7.15
2018-05-27T15:01:43.784Z,7.53
2018-05-27T15:04:14.128Z,10.23
2018-05-27T15:06:42.826Z,8.95
2018-05-27T15:09:18.638Z,8.02
2018-05-27T15:11:48.559Z,10.15
2018-05-27T15:14:18.192Z,7.53
2018-05-27T15:16:47.288Z,7.68
2018-05-27T15:19:21.304Z,14.57
2018-05-27T15:21:49.990Z,5.82
2018-05-27T15:24:23.084Z,6.37
2018-05-27T15:26:53.534Z,4.85
2018-05-27T15:29:26.493Z,11.32
2018-05-27T15:31:55.936Z,6.62
2018-05-27T15:34:27.307Z,5.55
2018-05-27T15:36:55.932Z,6.25
2018-05-27T15:39:30.614Z,10.45
2018-05-27T15:41:59.702Z,10.65
2018-05-27T15:44:33.486Z,6.97
2018-05-27T15:47:03.587Z,10.30
2018-05-27T15:49:36.877Z,10.23
2018-05-27T15:52:06.520Z,7.20
2018-05-27T15:54:36.775Z,6.70
2018-05-27T15:57:06.244Z,7.95
2018-05-27T15:59:39.305Z,7.47
2018-05-27T16:02:08.452Z,7.45
2018-05-27T16:04:41.152Z,18.50
2018-05-27T16:07:10.785Z,10.40
2018-05-27T16:09:52.265Z,7.80
2018-05-27T16:12:22.464Z,10.80
2018-05-27T16:14:52.962Z,7.10
2018-05-27T16:17:22.736Z,7.20
2018-05-27T16:19:52.559Z,7.30
2018-05-27T16:22:21.193Z,11.60
2018-05-27T16:24:53.575Z,8.50
2018-05-27T16:27:22.504Z,8.53
2018-05-27T16:29:54.855Z,8.27
2018-05-27T16:32:24.334Z,5.83
2018-05-27T16:34:58.631Z,7.07
2018-05-27T16:37:27.263Z,13.97
2018-05-27T16:39:59.838Z,17.87
2018-05-27T16:42:29.549Z,13.27
2018-05-27T16:57:53.423Z,6.75
2018-05-27T17:00:22.489Z,6.43
2018-05-27T17:02:52.981Z,11.63
2018-05-27T17:05:22.443Z,11.90
2018-05-27T17:07:52.615Z,11.30
2018-05-27T17:10:22.697Z,9.40
2018-05-27T17:12:52.371Z,5.90
2018-05-27T17:15:21.056Z,9.77
2018-05-27T17:17:50.044Z,13.67
2018-05-27T17:20:20.936Z,7.07
2018-05-27T17:22:50.748Z,7.77
2018-05-27T17:25:23.761Z,10.70
2018-05-27T17:27:53.246Z,9.77
2018-05-27T17:30:26.228Z,8.50
2018-05-27T17:32:55.296Z,9.10
2018-05-27T17:35:27.196Z,11.10
2018-05-27T17:37:56.272Z,13.67
2018-05-27T17:40:28.912Z,10.10
2018-05-27T17:42:58.015Z,11.20
2018-05-27T17:45:31.070Z,13.70
2018-05-27T17:48:09.262Z,14.87
2018-05-27T17:50:38.340Z,10.60
2018-05-27T17:53:08.629Z,12.30
2018-05-27T17:55:37.728Z,11.80
2018-05-27T17:58:07.399Z,13.50
2018-05-27T18:00:38.375Z,10.67
2018-05-27T18:03:07.461Z,14.07
2018-05-27T18:05:49.806Z,13.77
2018-05-27T18:08:19.640Z,12.93
2018-05-27T18:10:49.637Z,13.93
2018-05-27T18:13:19.247Z,11.63
2018-05-27T18:15:49.438Z,11.23
2018-05-27T18:18:18.562Z,14.50
2018-05-27T18:20:48.224Z,9.93
2018-05-27T18:23:17.285Z,10.27
2018-05-27T18:25:58.394Z,8.90
2018-05-27T18:28:28.840Z,3.90
2018-05-27T18:30:58.325Z,6.03
2018-05-27T18:33:27.052Z,4.10
2018-05-27T18:35:57.275Z,4.17
2018-05-27T18:38:26.409Z,3.30
2018-05-27T18:40:58.069Z,4.83
2018-05-27T18:43:27.765Z,4.70
2018-05-27T18:46:08.977Z,5.67
2018-05-27T18:48:38.798Z,4.43
2018-05-27T18:51:09.076Z,4.07
2018-05-27T18:53:37.967Z,5.20
2018-05-27T18:56:07.453Z,4.57
2018-05-27T18:58:37.387Z,4.83
2018-05-27T19:01:08.439Z,5.23
2018-05-27T19:03:37.525Z,3.30
2018-05-27T19:06:10.303Z,3.23
2018-05-27T19:08:39.671Z,2.87
2018-05-27T19:11:13.351Z,3.53
2018-05-27T19:13:43.533Z,6.03
2018-05-27T19:16:25.142Z,4.60
2018-05-27T19:18:53.850Z,3.13
2018-05-27T19:21:24.133Z,4.37
2018-05-27T19:23:52.859Z,4.00
2018-05-27T19:29:00.867Z,5.00
2018-05-27T19:31:29.567Z,6.27
2018-05-27T19:33:58.859Z,7.00
2018-05-27T19:36:28.927Z,5.27
2018-05-27T19:38:58.385Z,4.77
2018-05-27T19:41:31.406Z,4.67
2018-05-27T19:44:00.779Z,5.87
2018-05-27T19:46:33.153Z,4.73
2018-05-27T19:49:02.827Z,7.20
2018-05-27T19:51:35.609Z,5.47
2018-05-27T19:54:06.021Z,5.67
2018-05-27T19:56:38.671Z,4.17
2018-05-27T19:59:08.579Z,3.63
2018-05-27T20:01:39.235Z,4.60
2018-05-27T20:04:09.485Z,3.73
2018-05-27T20:06:41.499Z,3.30
2018-05-27T20:09:11.434Z,5.07
2018-05-27T20:11:43.715Z,4.90
2018-05-27T20:14:13.078Z,3.30
2018-05-27T20:16:46.523Z,5.13
2018-05-27T20:19:16.995Z,6.30
2018-05-27T20:21:49.237Z,4.03
2018-05-27T20:24:17.880Z,6.93
2018-05-27T20:26:49.771Z,4.90
2018-05-27T20:29:20.256Z,10.83
2018-05-27T20:31:52.838Z,7.90
2018-05-27T20:34:22.638Z,6.43
2018-05-27T20:36:56.358Z,5.53
2018-05-27T20:39:25.560Z,10.00
2018-05-27T20:41:59.195Z,7.27
2018-05-27T20:44:27.848Z,11.03
2018-05-27T20:47:01.015Z,8.90
2018-05-27T20:49:30.761Z,5.23
2018-05-27T20:52:12.760Z,4.77
2018-05-27T20:54:42.466Z,9.67
2018-05-27T20:57:12.869Z,9.90
2018-05-27T20:59:41.821Z,7.97
2018-05-27T21:02:11.871Z,5.50
2018-05-27T21:04:40.720Z,7.17
2018-05-27T21:07:13.885Z,10.67
2018-05-27T21:09:44.002Z,8.33
2018-05-27T21:12:14.162Z,6.87
2018-05-27T21:14:43.695Z,8.33
2018-05-27T21:17:17.370Z,6.33
2018-05-27T21:19:47.648Z,6.97
2018-05-27T21:22:19.828Z,7.60
2018-05-27T21:24:49.796Z,5.27
2018-05-27T21:27:22.231Z,7.80
2018-05-27T21:29:51.877Z,6.47
2018-05-27T21:32:23.670Z,7.30
2018-05-27T21:34:53.338Z,7.07
2018-05-27T21:37:25.694Z,6.60
2018-05-27T21:39:56.385Z,9.80
2018-05-27T21:42:27.377Z,7.40
2018-05-27T21:44:57.508Z,7.13
2018-05-27T21:47:31.117Z,10.37
2018-05-27T21:50:01.142Z,8.73
2018-05-27T21:52:35.540Z,6.17
2018-05-27T21:55:05.447Z,8.00
2018-05-27T21:57:35.809Z,6.03
2018-05-27T22:00:05.346Z,6.73
2018-05-27T22:15:44.955Z,8.57
2018-05-27T22:18:15.357Z,7.50
2018-05-27T22:20:46.455Z,8.77
2018-05-27T22:23:16.424Z,9.80
2018-05-27T22:25:49.159Z,9.83
2018-05-27T22:28:18.794Z,11.57
2018-05-27T22:30:51.302Z,9.47
2018-05-27T22:33:19.992Z,7.43
2018-05-27T22:36:01.205Z,8.37
2018-05-27T22:38:31.032Z,10.20
2018-05-27T22:40:59.724Z,9.07
2018-05-27T22:43:28.588Z,9.93
2018-05-27T22:45:57.981Z,11.40
2018-05-27T22:48:28.056Z,9.20
2018-05-27T22:51:02.750Z,9.23
2018-05-27T22:53:32.930Z,10.00
2018-05-27T22:56:03.669Z,10.70
2018-05-27T22:58:32.812Z,10.53
2018-05-27T23:01:05.553Z,7.17
2018-05-27T23:03:36.342Z,9.60
2018-05-27T23:06:12.179Z,8.63
2018-05-27T23:08:41.817Z,10.57
2018-05-27T23:11:12.268Z,10.37
2018-05-27T23:13:41.941Z,10.17
2018-05-27T23:16:13.534Z,9.80
2018-05-27T23:18:44.146Z,10.23
2018-05-27T23:21:18.083Z,8.90
2018-05-27T23:23:48.193Z,13.93
2018-05-27T23:26:18.852Z,10.97
2018-05-27T23:28:47.875Z,12.53
2018-05-27T23:31:29.468Z,14.23
2018-05-27T23:33:58.117Z,8.50
2018-05-27T23:36:27.863Z,9.60
2018-05-27T23:38:56.799Z,10.33
2018-05-27T23:41:26.212Z,8.80
2018-05-27T23:43:55.983Z,10.37
2018-05-27T23:46:27.424Z,11.47
2018-05-27T23:48:56.107Z,22.50
2018-05-27T23:51:35.316Z,12.37
2018-05-27T23:54:05.111Z,16.23
2018-05-27T23:56:33.773Z,15.07
2018-05-27T23:59:02.857Z,14.70
